Time;durP1;ratioP1;P1;durP2;ratioP2;P2;SDS_P1;SDS_P2;PMS_P1;PMS_P2;Temp;Humidity;BMP_temperature;BMP_pressure;BME280_temperature;BME280_humidity;BME280_pressure;Samples;Min_cycle;Max_cycle;Signal;HPM_P1;HPM_P2
2022/09/05 00:00:18;;;;;;;3.78;3.47;;;19.40;92.00;;;;;;5015355;28;20041;-75
2022/09/05 00:02:58;;;;;;;3.85;3.55;;;19.40;92.30;;;;;;4998507;28;20042;-75
2022/09/05 00:05:35;;;;;;;7.65;3.60;;;19.40;92.40;;;;;;5015786;28;20045;-75
2022/09/05 00:08:01;;;;;;;5.97;3.72;;;19.30;92.40;;;;;;5015196;28;20155;-78
2022/09/05 00:10:53;;;;;;;4.18;3.83;;;19.30;92.50;;;;;;5015268;28;20058;-79
2022/09/05 00:13:30;;;;;;;5.57;3.45;;;19.30;92.60;;;;;;5015657;28;20087;-77
2022/09/05 00:16:04;;;;;;;4.50;3.78;;;19.20;92.70;;;;;;5015573;28;20050;-77
2022/09/05 00:18:45;;;;;;;3.80;3.40;;;19.20;92.70;;;;;;5015000;28;20343;-78
2022/09/05 00:21:14;;;;;;;4.45;4.00;;;19.10;92.90;;;;;;5015168;28;20050;-74
2022/09/05 00:23:55;;;;;;;4.45;3.80;;;19.10;92.90;;;;;;5014642;28;20062;-76
2022/09/05 00:26:46;;;;;;;4.78;4.38;;;19.10;93.00;;;;;;4998111;28;20120;-77
2022/09/05 00:29:42;;;;;;;8.20;4.32;;;19.00;93.30;;;;;;5014739;28;20065;-78
2022/09/05 00:32:23;;;;;;;4.57;4.18;;;19.00;93.20;;;;;;5014076;28;20053;-78
2022/09/05 00:34:54;;;;;;;4.90;4.53;;;18.90;93.50;;;;;;5015102;28;20061;-75
2022/09/05 00:37:36;;;;;;;4.65;3.72;;;18.80;93.60;;;;;;5014592;28;20053;-76
2022/09/05 00:40:24;;;;;;;3.92;3.50;;;18.80;93.70;;;;;;5014563;28;20501;-78
2022/09/05 00:42:57;;;;;;;5.82;4.30;;;18.80;93.90;;;;;;5014807;28;20492;-75
2022/09/05 00:45:37;;;;;;;5.03;4.40;;;18.80;93.90;;;;;;5014820;28;20377;-78
2022/09/05 00:48:17;;;;;;;5.25;4.07;;;18.80;94.10;;;;;;5015003;28;20181;-77
2022/09/05 00:50:52;;;;;;;6.65;4.93;;;18.80;93.90;;;;;;5014263;28;20128;-78
2022/09/05 00:53:57;;;;;;;4.50;4.13;;;18.80;94.00;;;;;;5014297;28;20062;-79
2022/09/05 00:56:44;;;;;;;5.55;4.53;;;18.80;93.90;;;;;;5009319;28;20054;-73
2022/09/05 00:59:40;;;;;;;4.55;4.15;;;18.80;93.80;;;;;;5014199;28;20045;-77
2022/09/05 01:02:32;;;;;;;5.78;4.18;;;18.80;93.80;;;;;;5014059;28;20089;-75
2022/09/05 01:05:37;;;;;;;4.30;3.90;;;18.70;93.60;;;;;;5014549;28;20123;-78
2022/09/05 01:08:22;;;;;;;5.32;4.45;;;18.70;93.70;;;;;;4991066;28;20389;-76
2022/09/05 01:11:12;;;;;;;5.43;4.55;;;18.70;93.60;;;;;;5013888;28;20045;-78
2022/09/05 01:14:14;;;;;;;5.20;4.70;;;18.60;93.60;;;;;;5013845;28;20046;-77
2022/09/05 01:17:07;;;;;;;6.13;4.53;;;18.60;93.90;;;;;;5013931;28;20049;-74
2022/09/05 01:19:44;;;;;;;6.20;4.78;;;18.60;93.70;;;;;;5013861;28;20050;-76
2022/09/05 01:22:34;;;;;;;6.05;4.80;;;18.60;93.70;;;;;;5014263;28;20058;-78
2022/09/05 01:25:09;;;;;;;7.40;4.53;;;18.50;93.80;;;;;;5013812;28;20126;-77
2022/09/05 01:27:53;;;;;;;4.78;4.28;;;18.50;93.90;;;;;;5013643;28;20049;-76
2022/09/05 01:30:25;;;;;;;4.93;4.43;;;18.50;94.10;;;;;;5013835;28;20112;-78
2022/09/05 01:32:59;;;;;;;10.80;5.45;;;18.40;94.10;;;;;;5013807;28;20422;-76
2022/09/05 01:35:40;;;;;;;5.20;4.70;;;18.30;94.30;;;;;;5013594;28;20046;-78
2022/09/05 01:38:16;;;;;;;5.90;5.30;;;18.30;94.40;;;;;;5013564;28;20119;-77
2022/09/05 01:40:54;;;;;;;5.38;4.53;;;18.20;94.60;;;;;;5013364;28;20045;-73
2022/09/05 01:43:38;;;;;;;5.88;5.15;;;18.20;94.80;;;;;;5012651;28;20096;-74
2022/09/05 01:46:25;;;;;;;5.57;4.72;;;18.10;95.10;;;;;;5012985;28;20425;-74
2022/09/05 01:49:28;;;;;;;9.77;5.55;;;18.00;95.30;;;;;;4996015;28;20050;-78
2022/09/05 01:52:27;;;;;;;7.22;5.35;;;18.00;95.60;;;;;;5013497;28;20048;-77
2022/09/05 01:55:09;;;;;;;6.68;6.07;;;17.90;95.80;;;;;;5013945;28;20057;-75
2022/09/05 01:57:41;;;;;;;7.07;5.97;;;17.80;95.90;;;;;;5013494;28;20401;-75
2022/09/05 02:00:17;;;;;;;7.07;6.18;;;17.80;96.00;;;;;;5013130;28;20050;-77
2022/09/05 02:02:45;;;;;;;8.30;6.07;;;17.70;96.30;;;;;;4996370;28;20402;-78
2022/09/05 02:05:50;;;;;;;6.28;5.70;;;17.70;96.30;;;;;;5013038;28;20046;-77
2022/09/05 02:08:53;;;;;;;6.85;6.22;;;17.70;96.50;;;;;;5012946;28;20481;-78
2022/09/05 02:11:39;;;;;;;8.60;5.67;;;17.60;96.60;;;;;;5013294;28;20046;-76
2022/09/05 02:14:27;;;;;;;6.32;5.80;;;17.60;96.90;;;;;;5013090;28;20276;-76
2022/09/05 02:17:05;;;;;;;6.47;5.85;;;17.60;96.90;;;;;;5013446;28;20100;-77
2022/09/05 02:19:39;;;;;;;6.43;5.82;;;17.50;96.90;;;;;;5012863;28;20526;-76
2022/09/05 02:22:27;;;;;;;8.60;5.03;;;17.50;97.00;;;;;;5012466;28;20060;-76
2022/09/05 02:25:07;;;;;;;7.30;5.57;;;17.50;97.20;;;;;;5012756;28;20064;-77
2022/09/05 02:27:53;;;;;;;6.60;6.00;;;17.50;97.40;;;;;;5012528;28;20392;-78
2022/09/05 02:30:25;;;;;;;7.15;6.45;;;17.40;97.50;;;;;;5012845;28;20117;-78
2022/09/05 02:33:14;;;;;;;7.00;6.40;;;17.40;97.60;;;;;;5012970;28;20037;-77
2022/09/05 02:36:06;;;;;;;8.10;6.38;;;17.40;98.00;;;;;;5012724;28;20053;-79
2022/09/05 02:38:38;;;;;;;7.40;5.97;;;17.30;97.80;;;;;;5012673;28;20062;-78
2022/09/05 02:41:12;;;;;;;7.07;6.40;;;17.30;97.90;;;;;;5012727;28;20050;-75
2022/09/05 02:43:54;;;;;;;6.30;5.70;;;17.20;97.90;;;;;;5012695;28;20049;-76
2022/09/05 02:46:57;;;;;;;6.00;5.40;;;17.20;98.10;;;;;;5012561;28;20057;-77
2022/09/05 02:49:40;;;;;;;9.00;6.88;;;17.10;98.30;;;;;;5012893;28;20089;-77
2022/09/05 02:52:09;;;;;;;9.90;6.80;;;17.10;98.40;;;;;;5012382;28;20057;-76
2022/09/05 02:54:40;;;;;;;7.13;6.20;;;17.10;98.40;;;;;;5013943;28;20077;-76
2022/09/05 02:57:35;;;;;;;7.70;6.63;;;17.00;98.40;;;;;;5016922;28;20073;-74
2022/09/05 03:00:10;;;;;;;9.18;6.78;;;17.00;98.60;;;;;;5017054;28;20060;-77
2022/09/05 03:03:12;;;;;;;11.98;7.88;;;16.90;98.60;;;;;;5016379;28;20045;-77
2022/09/05 03:05:58;;;;;;;8.02;6.85;;;16.90;98.70;;;;;;5016394;28;20549;-79
2022/09/05 03:09:16;;;;;;;8.27;6.72;;;16.90;99.00;;;;;;5016264;28;20117;-73
2022/09/05 03:12:24;;;;;;;7.13;6.47;;;16.80;98.90;;;;;;5009404;28;20108;-78
2022/09/05 03:15:14;;;;;;;8.35;6.15;;;16.80;99.10;;;;;;5016567;28;20041;-75
2022/09/05 03:18:08;;;;;;;7.20;6.60;;;16.70;99.10;;;;;;5016398;28;20125;-76
2022/09/05 03:21:12;;;;;;;7.38;6.68;;;16.70;99.30;;;;;;5016428;28;20061;-76
2022/09/05 03:24:19;;;;;;;6.95;6.10;;;16.70;99.30;;;;;;5016223;28;20548;-77
2022/09/05 03:27:23;;;;;;;6.90;6.20;;;16.70;99.40;;;;;;5016082;28;20120;-75
2022/09/05 03:30:14;;;;;;;7.30;6.45;;;16.60;99.60;;;;;;5015840;28;20141;-77
2022/09/05 03:33:37;;;;;;;6.75;6.05;;;16.60;99.50;;;;;;5015869;28;20081;-77
2022/09/05 03:36:23;;;;;;;9.02;6.68;;;16.60;99.70;;;;;;4996360;28;20063;-77
2022/09/05 03:39:29;;;;;;;5.90;5.40;;;16.60;99.70;;;;;;5015453;28;20062;-75
2022/09/05 03:42:17;;;;;;;7.20;5.88;;;16.60;99.90;;;;;;5016251;28;20092;-75
2022/09/05 03:45:00;;;;;;;7.53;6.15;;;16.50;99.90;;;;;;5015290;28;20502;-78
2022/09/05 03:47:54;;;;;;;8.07;6.13;;;16.50;99.90;;;;;;5016023;28;20049;-74
2022/09/05 03:50:36;;;;;;;6.00;5.40;;;16.50;99.90;;;;;;5015957;28;20085;-77
2022/09/05 03:53:17;;;;;;;7.07;6.40;;;16.50;99.90;;;;;;5015475;28;20061;-77
2022/09/05 03:56:08;;;;;;;6.65;5.97;;;16.40;99.90;;;;;;5016007;28;20054;-78
2022/09/05 03:58:36;;;;;;;9.05;6.45;;;16.40;99.90;;;;;;5015925;28;20065;-77
2022/09/05 04:01:04;;;;;;;7.80;6.97;;;16.40;99.90;;;;;;5014950;28;20379;-77
2022/09/05 04:03:39;;;;;;;6.53;5.93;;;16.30;99.90;;;;;;5015628;28;20081;-73
2022/09/05 04:06:07;;;;;;;7.43;6.72;;;16.40;99.90;;;;;;5015155;28;20096;-75
2022/09/05 04:09:11;;;;;;;8.45;6.03;;;16.50;99.90;;;;;;5015067;28;20512;-78
2022/09/05 04:11:51;;;;;;;7.88;6.03;;;16.30;99.90;;;;;;5015481;28;20089;-73
2022/09/05 04:14:31;;;;;;;9.35;6.70;;;16.30;99.90;;;;;;5015442;28;20042;-76
2022/09/05 04:17:21;;;;;;;7.00;6.40;;;16.20;99.90;;;;;;5015380;28;20046;-78
2022/09/05 04:20:06;;;;;;;6.93;6.32;;;16.20;99.90;;;;;;5010882;28;20141;-75
2022/09/05 04:23:06;;;;;;;7.30;5.90;;;16.10;99.90;;;;;;5015621;28;20065;-77
2022/09/05 04:26:01;;;;;;;8.60;6.32;;;16.10;99.90;;;;;;4997839;28;20379;-78
2022/09/05 04:29:02;;;;;;;9.95;6.38;;;16.10;99.90;;;;;;4997681;28;20045;-77
2022/09/05 04:31:39;;;;;;;7.03;6.32;;;16.00;99.90;;;;;;5014685;28;20077;-76
2022/09/05 04:34:43;;;;;;;9.50;6.82;;;16.00;99.90;;;;;;5014749;28;20504;-78
2022/09/05 04:37:10;;;;;;;5.80;5.20;;;15.90;99.90;;;;;;5010551;28;20054;-76
2022/09/05 04:39:36;;;;;;;6.70;5.93;;;15.90;99.90;;;;;;5014541;28;20049;-76
2022/09/05 04:42:05;;;;;;;6.75;6.00;;;15.90;99.90;;;;;;5014551;28;20084;-76
2022/09/05 04:44:43;;;;;;;6.80;6.20;;;15.90;99.90;;;;;;5014442;28;20066;-76
2022/09/05 04:47:28;;;;;;;8.93;7.07;;;15.90;99.90;;;;;;5014955;28;20115;-77
2022/09/05 04:50:06;;;;;;;7.90;6.70;;;16.00;99.90;;;;;;5014655;28;20366;-77
2022/09/05 04:52:53;;;;;;;8.57;6.85;;;16.00;99.90;;;;;;5014312;28;20089;-77
2022/09/05 04:55:47;;;;;;;9.10;6.78;;;16.00;99.90;;;;;;5014657;28;20052;-77
2022/09/05 04:58:34;;;;;;;7.10;6.43;;;16.00;99.90;;;;;;4995980;28;20506;-76
2022/09/05 05:01:07;;;;;;;7.50;6.70;;;16.00;99.90;;;;;;5014338;28;20046;-75
2022/09/05 05:03:35;;;;;;;7.97;6.28;;;16.00;99.90;;;;;;5014485;28;20075;-76
2022/09/05 05:06:22;;;;;;;6.97;6.35;;;15.90;99.90;;;;;;5014329;28;20054;-75
2022/09/05 05:09:20;;;;;;;8.82;6.60;;;15.90;99.90;;;;;;5014043;28;20046;-77
2022/09/05 05:12:02;;;;;;;9.57;7.32;;;15.90;99.90;;;;;;5013879;28;20046;-76
2022/09/05 05:14:45;;;;;;;6.63;5.82;;;15.90;99.90;;;;;;5014282;28;20120;-76
2022/09/05 05:17:14;;;;;;;7.95;7.15;;;15.90;99.90;;;;;;5013392;28;20540;-77
2022/09/05 05:19:39;;;;;;;6.90;6.30;;;15.90;99.90;;;;;;5013447;28;20064;-77
2022/09/05 05:22:13;;;;;;;8.75;6.70;;;15.90;99.90;;;;;;5013239;28;20571;-75
2022/09/05 05:24:46;;;;;;;7.47;6.68;;;15.90;99.90;;;;;;5013816;28;20100;-77
2022/09/05 05:27:14;;;;;;;7.13;6.43;;;15.90;99.90;;;;;;5013640;28;20056;-76
2022/09/05 05:29:59;;;;;;;10.60;7.90;;;15.80;99.90;;;;;;5013616;28;20046;-78
2022/09/05 05:32:30;;;;;;;7.18;6.38;;;15.80;99.90;;;;;;5013888;28;20145;-76
2022/09/05 05:35:02;;;;;;;7.53;6.82;;;15.80;99.90;;;;;;5014472;28;20056;-76
2022/09/05 05:37:34;;;;;;;8.18;7.35;;;15.80;99.90;;;;;;5013997;28;20104;-79
2022/09/05 05:40:10;;;;;;;7.00;6.40;;;15.80;99.90;;;;;;5013672;28;20049;-76
2022/09/05 05:42:38;;;;;;;8.35;6.72;;;15.90;99.90;;;;;;4996308;28;20050;-74
2022/09/05 05:45:15;;;;;;;8.27;7.03;;;15.90;99.90;;;;;;5013011;28;20374;-74
2022/09/05 05:47:50;;;;;;;9.13;6.95;;;15.90;99.90;;;;;;5013656;28;20049;-76
2022/09/05 05:50:41;;;;;;;7.53;5.30;;;16.00;99.90;;;;;;5013375;28;20037;-76
2022/09/05 05:53:12;;;;;;;10.18;6.18;;;16.10;99.90;;;;;;5013200;28;20115;-76
2022/09/05 05:55:52;;;;;;;8.32;6.72;;;16.10;99.90;;;;;;4996194;28;20340;-77
2022/09/05 05:58:39;;;;;;;8.15;6.63;;;16.10;99.90;;;;;;5013200;28;20473;-78
2022/09/05 06:01:32;;;;;;;8.60;7.30;;;16.20;99.90;;;;;;5013639;28;20049;-75
2022/09/05 06:04:15;;;;;;;11.27;7.90;;;16.30;99.90;;;;;;5013554;28;20056;-79
2022/09/05 06:06:54;;;;;;;9.82;7.72;;;16.40;99.90;;;;;;5013689;28;20050;-77
2022/09/05 06:09:44;;;;;;;9.57;7.85;;;16.40;99.90;;;;;;5013344;28;20045;-75
2022/09/05 06:12:48;;;;;;;9.80;7.05;;;16.50;99.90;;;;;;5012956;28;20078;-75
2022/09/05 06:15:37;;;;;;;6.88;6.28;;;16.60;99.90;;;;;;5013021;28;20042;-77
2022/09/05 06:18:36;;;;;;;7.28;6.57;;;16.60;99.90;;;;;;5013532;28;20162;-77
2022/09/05 06:21:38;;;;;;;7.50;6.80;;;16.60;99.90;;;;;;5012341;28;20053;-77
2022/09/05 06:24:26;;;;;;;7.28;6.60;;;16.70;99.90;;;;;;5012698;28;20560;-76
2022/09/05 06:26:57;;;;;;;9.27;7.47;;;16.70;99.90;;;;;;5012585;28;20045;-76
2022/09/05 06:29:48;;;;;;;8.77;7.80;;;16.80;99.90;;;;;;5012189;28;20085;-76
2022/09/05 06:32:34;;;;;;;11.70;7.18;;;16.90;99.90;;;;;;5012736;28;20119;-74
2022/09/05 06:35:20;;;;;;;8.23;7.25;;;17.10;99.90;;;;;;5013025;28;20050;-74
2022/09/05 06:38:23;;;;;;;9.25;7.47;;;17.10;99.90;;;;;;5012269;28;20104;-78
2022/09/05 06:41:22;;;;;;;9.35;7.80;;;17.30;99.90;;;;;;5012329;28;20052;-78
2022/09/05 06:44:30;;;;;;;7.80;7.10;;;17.30;99.90;;;;;;5012861;28;20042;-76
2022/09/05 06:47:05;;;;;;;10.20;7.13;;;17.40;99.90;;;;;;5009187;28;20060;-73
2022/09/05 06:50:15;;;;;;;8.13;7.18;;;17.50;99.90;;;;;;5012440;28;20482;-76
2022/09/05 06:52:49;;;;;;;7.63;7.00;;;17.60;99.90;;;;;;5000514;28;20065;-75
2022/09/05 06:55:27;;;;;;;8.90;7.93;;;17.90;99.90;;;;;;5012851;28;20125;-76
2022/09/05 06:58:10;;;;;;;7.95;7.00;;;18.00;99.90;;;;;;5013070;28;20117;-79
2022/09/05 07:00:51;;;;;;;10.85;7.13;;;18.20;99.90;;;;;;5012318;28;20145;-74
2022/09/05 07:03:58;;;;;;;10.48;7.32;;;18.30;99.90;;;;;;5012370;28;20375;-79
2022/09/05 07:06:29;;;;;;;8.80;7.68;;;18.50;99.70;;;;;;5012710;28;20053;-74
2022/09/05 07:09:26;;;;;;;8.55;7.18;;;18.70;99.70;;;;;;5012197;28;20100;-77
2022/09/05 07:12:05;;;;;;;12.02;7.53;;;18.90;99.60;;;;;;5008891;28;20062;-75
2022/09/05 07:14:39;;;;;;;9.05;7.38;;;19.20;99.70;;;;;;5012235;28;20050;-75
2022/09/05 07:17:36;;;;;;;10.20;7.13;;;19.40;99.80;;;;;;5012382;28;20052;-75
2022/09/05 07:20:34;;;;;;;9.65;7.05;;;19.70;98.30;;;;;;4997643;28;20256;-77
2022/09/05 07:23:25;;;;;;;11.13;7.00;;;20.20;99.70;;;;;;5007786;28;20046;-77
2022/09/05 07:25:54;;;;;;;17.52;7.50;;;21.50;97.90;;;;;;5012662;28;20046;-76
2022/09/05 07:28:21;;;;;;;7.90;6.68;;;22.30;96.60;;;;;;5011942;28;20046;-77
2022/09/05 07:30:51;;;;;;;13.95;7.03;;;23.20;94.90;;;;;;5012303;28;20104;-78
2022/09/05 07:33:25;;;;;;;13.02;6.57;;;24.20;93.20;;;;;;5012388;28;20125;-77
2022/09/05 07:35:51;;;;;;;8.60;6.53;;;25.10;91.90;;;;;;5012146;28;20139;-75
2022/09/05 07:38:21;;;;;;;7.00;6.30;;;25.90;90.70;;;;;;5012026;28;20049;-78
2022/09/05 07:41:09;;;;;;;14.63;7.78;;;26.50;89.00;;;;;;5012407;28;20061;-76
2022/09/05 07:43:40;;;;;;;7.07;5.68;;;27.30;86.10;;;;;;5015508;28;20048;-77
2022/09/05 07:46:22;;;;;;;10.52;5.60;;;27.80;86.30;;;;;;5015809;28;20129;-74
2022/09/05 07:49:11;;;;;;;9.93;7.20;;;28.30;83.10;;;;;;5015807;28;20050;-78
2022/09/05 07:51:58;;;;;;;16.40;6.03;;;29.00;81.20;;;;;;5015595;28;20297;-77
2022/09/05 07:54:40;;;;;;;9.18;5.93;;;29.50;78.50;;;;;;5015409;28;20068;-74
2022/09/05 07:57:08;;;;;;;11.80;7.53;;;29.90;76.00;;;;;;5015216;28;20092;-78
2022/09/05 07:59:37;;;;;;;8.30;6.85;;;30.30;79.90;;;;;;5015355;28;20042;-75
2022/09/05 08:02:06;;;;;;;8.80;5.82;;;30.50;79.00;;;;;;5014715;28;20111;-77
2022/09/05 08:04:34;;;;;;;9.55;5.80;;;30.60;78.00;;;;;;5015207;28;20053;-77
2022/09/05 08:07:13;;;;;;;11.13;5.72;;;30.60;78.10;;;;;;5015365;28;20053;-78
2022/09/05 08:09:46;;;;;;;12.27;5.82;;;30.80;77.30;;;;;;5015136;28;20112;-76
2022/09/05 08:12:19;;;;;;;6.40;5.45;;;30.70;77.00;;;;;;5015622;28;20045;-77
2022/09/05 08:15:01;;;;;;;8.15;5.13;;;30.80;74.60;;;;;;5015059;28;20080;-77
2022/09/05 08:17:27;;;;;;;8.77;5.05;;;31.20;74.90;;;;;;5015477;28;20046;-78
2022/09/05 08:19:58;;;;;;;9.02;5.18;;;31.40;76.50;;;;;;4997306;28;20052;-79
2022/09/05 08:22:29;;;;;;;8.82;5.85;;;31.70;76.20;;;;;;5015285;28;20441;-78
2022/09/05 08:24:57;;;;;;;6.40;5.60;;;31.80;74.80;;;;;;5014918;28;20057;-79
2022/09/05 08:27:31;;;;;;;6.95;5.97;;;31.40;75.00;;;;;;5014874;28;20045;-78
2022/09/05 08:30:15;;;;;;;8.13;5.65;;;31.40;74.90;;;;;;5014660;28;20049;-78
2022/09/05 08:32:54;;;;;;;6.70;6.10;;;31.60;72.20;;;;;;5014856;28;20046;-78
2022/09/05 08:35:26;;;;;;;5.60;5.07;;;31.90;72.30;;;;;;5014584;28;20155;-79
2022/09/05 08:37:53;;;;;;;7.47;4.93;;;32.20;73.60;;;;;;5014809;28;20105;-79
2022/09/05 08:40:34;;;;;;;8.32;6.22;;;32.40;73.60;;;;;;5014566;28;20502;-78
2022/09/05 08:43:27;;;;;;;8.75;6.50;;;32.00;71.70;;;;;;5014910;28;20038;-79
2022/09/05 08:45:58;;;;;;;14.38;6.05;;;31.90;71.30;;;;;;5014970;28;20081;-75
2022/09/05 08:48:53;;;;;;;8.73;5.40;;;31.40;71.40;;;;;;5014253;28;20054;-75
2022/09/05 08:51:39;;;;;;;7.63;6.40;;;31.40;72.20;;;;;;5014075;28;20064;-78
2022/09/05 08:54:30;;;;;;;6.72;5.95;;;31.20;71.90;;;;;;5014434;28;20566;-78
2022/09/05 08:57:16;;;;;;;9.50;6.77;;;31.10;71.40;;;;;;5014280;28;20057;-81
2022/09/05 08:59:49;;;;;;;8.18;6.47;;;30.90;72.90;;;;;;5014231;28;20076;-85
2022/09/05 09:02:48;;;;;;;9.98;7.03;;;30.90;72.90;;;;;;5014231;28;20120;-77
2022/09/05 09:05:49;;;;;;;13.25;6.57;;;30.60;71.90;;;;;;5014014;28;20042;-77
2022/09/05 09:08:24;;;;;;;8.63;5.90;;;30.70;72.00;;;;;;5014443;28;20128;-78
2022/09/05 09:11:03;;;;;;;9.65;6.45;;;30.60;72.70;;;;;;5013850;28;20044;-77
2022/09/05 09:14:13;;;;;;;9.77;6.47;;;31.20;72.20;;;;;;5013862;28;20041;-77
2022/09/05 09:16:57;;;;;;;6.20;5.03;;;31.50;71.40;;;;;;5008961;28;20058;-80
2022/09/05 09:19:45;;;;;;;6.18;5.50;;;31.60;71.10;;;;;;5013989;28;20050;-77
2022/09/05 09:22:17;;;;;;;6.35;5.32;;;32.00;71.80;;;;;;5009545;28;20512;-78
2022/09/05 09:25:15;;;;;;;9.02;5.63;;;32.40;70.80;;;;;;5014244;28;20054;-79
2022/09/05 09:27:44;;;;;;;6.47;5.80;;;33.00;70.00;;;;;;5012697;28;20129;-79
2022/09/05 09:30:12;;;;;;;5.40;4.70;;;33.10;70.40;;;;;;5013495;28;20408;-79
2022/09/05 09:32:48;;;;;;;5.53;5.00;;;33.10;70.20;;;;;;5013530;28;20046;-80
2022/09/05 09:35:19;;;;;;;6.82;4.97;;;33.30;69.80;;;;;;4996000;28;20057;-79
2022/09/05 09:38:07;;;;;;;4.63;4.20;;;33.40;69.10;;;;;;5013835;28;20057;-81
2022/09/05 09:40:54;;;;;;;5.20;4.18;;;33.80;69.40;;;;;;5013569;28;20511;-78
2022/09/05 09:43:27;;;;;;;9.10;4.60;;;33.90;68.60;;;;;;5013369;28;20046;-78
2022/09/05 09:45:58;;;;;;;5.32;4.82;;;33.90;67.60;;;;;;4995670;28;20073;-79
2022/09/05 09:48:53;;;;;;;8.20;4.68;;;33.50;67.50;;;;;;5013511;28;20053;-79
2022/09/05 09:51:49;;;;;;;4.72;4.35;;;33.60;68.00;;;;;;5013227;28;20041;-81
2022/09/05 09:54:45;;;;;;;6.78;4.15;;;33.20;68.50;;;;;;5013176;28;20053;-78
2022/09/05 09:57:36;;;;;;;6.00;3.90;;;33.00;68.90;;;;;;5013666;28;20053;-78
2022/09/05 10:00:07;;;;;;;4.53;4.13;;;33.20;69.00;;;;;;5013188;28;20054;-79
2022/09/05 10:02:54;;;;;;;4.90;3.70;;;33.00;69.10;;;;;;5013176;28;20038;-78
2022/09/05 10:05:50;;;;;;;5.30;3.30;;;33.10;68.20;;;;;;5012654;28;20056;-77
2022/09/05 10:08:36;;;;;;;7.10;3.08;;;32.80;67.40;;;;;;5013569;28;20056;-79
2022/09/05 10:11:35;;;;;;;5.38;3.72;;;32.70;68.20;;;;;;5013699;28;20136;-81
2022/09/05 10:14:04;;;;;;;5.35;3.80;;;32.70;68.00;;;;;;5013123;28;20439;-79
2022/09/05 10:16:51;;;;;;;4.63;3.30;;;33.10;68.70;;;;;;5013365;28;20125;-79
2022/09/05 10:19:35;;;;;;;5.25;3.67;;;33.00;66.80;;;;;;5013377;28;20061;-79
2022/09/05 10:22:18;;;;;;;3.33;2.90;;;33.30;67.80;;;;;;5012866;28;20140;-80
2022/09/05 10:25:02;;;;;;;3.13;2.92;;;33.10;67.60;;;;;;5012859;28;20049;-78
2022/09/05 10:28:04;;;;;;;4.47;3.22;;;33.20;67.10;;;;;;5013004;28;20046;-81
2022/09/05 10:30:43;;;;;;;3.67;2.70;;;33.20;67.30;;;;;;5012692;28;20046;-76
2022/09/05 10:33:38;;;;;;;2.78;2.58;;;33.70;66.40;;;;;;5013144;28;20046;-80
2022/09/05 10:36:27;;;;;;;3.33;3.03;;;33.60;66.70;;;;;;5012857;28;20053;-76
2022/09/05 10:39:24;;;;;;;4.75;3.80;;;33.60;65.30;;;;;;5012902;28;20512;-80
2022/09/05 10:41:57;;;;;;;7.22;3.22;;;33.20;66.10;;;;;;5004895;28;20054;-80
2022/09/05 10:44:45;;;;;;;3.63;2.67;;;33.40;66.60;;;;;;5012615;28;20061;-80
2022/09/05 10:47:25;;;;;;;3.90;3.50;;;33.30;66.00;;;;;;5012785;28;20073;-76
2022/09/05 10:50:20;;;;;;;3.60;2.88;;;32.90;66.70;;;;;;5013229;28;20051;-77
2022/09/05 10:52:49;;;;;;;3.00;2.72;;;32.40;66.80;;;;;;5012305;28;20049;-78
2022/09/05 10:55:26;;;;;;;3.72;3.28;;;31.80;67.10;;;;;;5012548;28;20343;-79
2022/09/05 10:58:34;;;;;;;3.13;2.92;;;31.40;67.10;;;;;;5012960;28;20178;-81
2022/09/05 11:01:05;;;;;;;4.20;2.67;;;31.00;67.80;;;;;;5012747;28;20080;-77
2022/09/05 11:04:12;;;;;;;3.20;2.90;;;30.60;68.20;;;;;;5012519;28;20129;-82
2022/09/05 11:06:41;;;;;;;4.20;2.80;;;30.60;68.60;;;;;;4998258;28;20054;-80
2022/09/05 11:09:34;;;;;;;7.35;2.67;;;30.50;68.60;;;;;;5012741;28;20455;-78
2022/09/05 11:12:05;;;;;;;;;;;30.40;68.50;;;;;;5012715;28;20046;-78
2022/09/05 11:14:51;;;;;;;4.75;2.72;;;30.20;69.60;;;;;;4995406;28;19929;-80
2022/09/05 11:17:22;;;;;;;3.10;2.80;;;30.20;68.70;;;;;;5016460;28;20049;-79
2022/09/05 11:20:30;;;;;;;5.80;3.43;;;30.10;68.00;;;;;;4998539;28;20458;-82
2022/09/05 11:23:22;;;;;;;4.22;3.05;;;30.10;67.90;;;;;;4994063;28;20042;-78
2022/09/05 11:26:22;;;;;;;3.17;2.87;;;30.00;68.90;;;;;;5014746;28;20061;-78
2022/09/05 11:28:54;;;;;;;5.43;3.22;;;29.90;69.10;;;;;;5015696;28;20053;-80
2022/09/05 11:31:24;;;;;;;5.80;2.95;;;29.70;68.80;;;;;;5015789;28;20046;-77
2022/09/05 11:33:57;;;;;;;4.25;3.47;;;29.70;69.10;;;;;;5015381;28;20437;-79
2022/09/05 11:36:31;;;;;;;5.40;3.83;;;29.60;69.60;;;;;;5016343;28;20053;-78
2022/09/05 11:39:15;;;;;;;6.65;3.40;;;29.60;69.30;;;;;;5015918;28;20053;-80
2022/09/05 11:41:57;;;;;;;6.40;3.20;;;29.70;69.50;;;;;;4998569;28;20185;-78
2022/09/05 11:45:08;;;;;;;4.05;3.05;;;29.70;69.30;;;;;;5015447;28;20053;-77
2022/09/05 11:47:54;;;;;;;7.78;3.20;;;29.70;69.40;;;;;;5003064;28;20077;-75
2022/09/05 11:50:47;;;;;;;5.00;3.30;;;29.50;69.50;;;;;;5015267;28;20050;-79
2022/09/05 11:53:41;;;;;;;3.58;3.22;;;29.40;69.60;;;;;;5015418;28;20046;-77
2022/09/05 11:56:51;;;;;;;3.70;3.03;;;29.40;69.90;;;;;;5015137;28;20057;-78
2022/09/05 11:59:50;;;;;;;5.75;3.45;;;29.40;69.90;;;;;;5004496;28;20053;-77
2022/09/05 12:02:37;;;;;;;3.75;3.05;;;29.70;69.70;;;;;;5015482;28;20068;-78
2022/09/05 12:05:36;;;;;;;3.63;3.33;;;29.70;69.20;;;;;;5014870;28;20132;-77
2022/09/05 12:08:06;;;;;;;4.95;3.33;;;29.90;69.60;;;;;;5014883;28;20054;-76
2022/09/05 12:10:50;;;;;;;3.92;3.20;;;29.90;69.10;;;;;;5014552;28;20476;-79
2022/09/05 12:13:31;;;;;;;5.68;3.75;;;29.80;69.30;;;;;;5015333;28;20094;-79
2022/09/05 12:16:06;;;;;;;4.40;3.95;;;29.80;69.30;;;;;;5015027;28;20046;-80
2022/09/05 12:18:35;;;;;;;3.85;3.10;;;29.60;69.30;;;;;;4997377;28;20046;-79
2022/09/05 12:21:07;;;;;;;8.25;3.80;;;29.80;69.50;;;;;;5014439;28;20097;-78
2022/09/05 12:24:13;;;;;;;4.35;3.95;;;30.00;69.10;;;;;;5015029;28;20065;-80
2022/09/05 12:27:07;;;;;;;3.38;3.08;;;30.10;69.20;;;;;;4981451;28;20097;-77
2022/09/05 12:29:45;;;;;;;3.10;2.80;;;30.30;68.90;;;;;;5014608;28;20049;-79
2022/09/05 12:32:19;;;;;;;3.47;3.10;;;30.30;68.60;;;;;;5014564;28;20080;-77
2022/09/05 12:35:02;;;;;;;5.22;2.75;;;30.40;67.80;;;;;;5014456;28;20046;-78
2022/09/05 12:37:54;;;;;;;3.13;2.92;;;30.50;68.00;;;;;;5014766;28;20052;-78
2022/09/05 12:40:33;;;;;;;4.90;2.67;;;30.50;67.80;;;;;;5014854;28;20104;-76
2022/09/05 12:43:00;;;;;;;2.70;2.50;;;30.50;67.80;;;;;;5014267;28;20455;-77
2022/09/05 12:45:39;;;;;;;3.25;2.95;;;30.40;67.50;;;;;;5014696;28;20056;-78
2022/09/05 12:48:42;;;;;;;4.28;2.92;;;30.40;67.40;;;;;;5014036;28;20096;-76
2022/09/05 12:51:12;;;;;;;4.97;2.72;;;30.40;67.60;;;;;;5014462;28;20049;-79
2022/09/05 12:53:40;;;;;;;3.13;2.72;;;30.30;67.30;;;;;;5014840;28;20064;-78
2022/09/05 12:56:46;;;;;;;4.45;3.13;;;30.20;67.10;;;;;;5014162;28;20133;-78
2022/09/05 12:59:20;;;;;;;3.58;3.28;;;30.00;67.40;;;;;;5014075;28;20053;-78
2022/09/05 13:02:06;;;;;;;2.92;2.60;;;29.90;67.80;;;;;;5013959;28;20116;-77
2022/09/05 13:04:37;;;;;;;6.05;2.72;;;29.70;68.00;;;;;;5013909;28;20050;-80
2022/09/05 13:07:19;;;;;;;3.28;2.88;;;29.70;68.00;;;;;;5014212;28;20045;-79
2022/09/05 13:09:55;;;;;;;3.97;3.03;;;29.70;68.00;;;;;;5013842;28;20088;-78
2022/09/05 13:12:32;;;;;;;4.68;2.70;;;30.00;68.10;;;;;;5013719;28;20042;-77
2022/09/05 13:15:04;;;;;;;2.85;2.50;;;30.10;67.40;;;;;;5013700;28;20515;-80
2022/09/05 13:17:49;;;;;;;4.88;2.60;;;30.10;67.10;;;;;;5013921;28;20052;-77
2022/09/05 13:20:43;;;;;;;2.75;2.22;;;30.20;67.10;;;;;;5013452;28;20064;-76
2022/09/05 13:23:24;;;;;;;2.47;2.25;;;30.30;66.90;;;;;;5013151;28;20480;-77
2022/09/05 13:26:16;;;;;;;5.28;2.47;;;30.30;67.10;;;;;;5013813;28;20140;-76
2022/09/05 13:28:56;;;;;;;3.10;2.80;;;30.10;66.60;;;;;;5014055;28;20050;-79
2022/09/05 13:31:40;;;;;;;4.65;2.40;;;30.00;66.80;;;;;;5013449;28;20526;-74
2022/09/05 13:34:28;;;;;;;2.30;2.08;;;30.00;67.10;;;;;;5013774;28;20153;-77
2022/09/05 13:37:11;;;;;;;2.80;2.58;;;30.10;67.60;;;;;;5013358;28;20042;-78
2022/09/05 13:39:58;;;;;;;2.38;2.28;;;30.30;67.30;;;;;;5012209;28;20042;-80
2022/09/05 13:42:29;;;;;;;3.05;2.30;;;30.50;66.70;;;;;;5013340;28;20046;-75
2022/09/05 13:44:58;;;;;;;3.15;2.25;;;30.70;66.50;;;;;;5013313;28;20124;-78
2022/09/05 13:47:42;;;;;;;3.20;2.40;;;30.70;66.00;;;;;;4996091;28;20058;-77
2022/09/05 13:50:30;;;;;;;4.07;2.42;;;30.60;65.70;;;;;;5013061;28;20053;-81
2022/09/05 13:53:01;;;;;;;3.20;2.65;;;30.60;65.50;;;;;;5013051;28;20475;-78
2022/09/05 13:55:54;;;;;;;2.72;2.22;;;30.60;65.50;;;;;;5012929;28;20473;-78
2022/09/05 13:58:44;;;;;;;2.67;2.28;;;30.40;65.10;;;;;;5013502;28;20049;-78
2022/09/05 14:01:42;;;;;;;2.22;2.10;;;30.30;65.70;;;;;;5013022;28;20061;-77
2022/09/05 14:04:17;;;;;;;2.20;2.00;;;30.20;65.60;;;;;;5012892;28;20100;-80
2022/09/05 14:07:00;;;;;;;3.47;2.55;;;30.20;66.00;;;;;;5012810;28;20053;-76
2022/09/05 14:10:05;;;;;;;3.60;2.55;;;30.30;65.60;;;;;;5013175;28;20085;-78